Camp Shelby, Mississippi
Current Conditions -  °F | °C
As of 11:53 AM on Thursday 29 Jan 2015 (Local Time) from KHBG Reporting Station
Few Clouds Few Clouds  
Wind Chill: 71°   Ceiling: Unl
Heat Index: 71°   Visibility: 10mi
Dew Point: 52°   Wind: 9mph
Humidity: 51%   Direction: 220°SW
Pressure: 30.23"   Gusts: 22mph
Location:  31.1996°N, 89.2694°W
Report Text: KHBG 291753Z AUTO 22008G19KT 10SM FEW034 22/11 A3023 RMK AO2 SLP237 T02170111 10217 20017 58012
Loading
Personal Weather Stations






























Interactive Weather Map New forecast layout! Learn more

10-Day Weather Forecast

Advertisements
Track Severe Weather on mobile